sensor_id;sensor_type;location;lat;lon;timestamp;P1;durP1;ratioP1;P2;durP2;ratioP2
78895;SDS011;68284;59.124;37.910;2024-03-23T00:52:56;6.88;;;2.08;;
78895;SDS011;68284;59.124;37.910;2024-03-23T00:55:30;2.92;;;2.30;;
78895;SDS011;68284;59.124;37.910;2024-03-23T00:58:08;3.78;;;2.42;;
78895;SDS011;68284;59.124;37.910;2024-03-23T01:01:12;2.25;;;1.80;;
78895;SDS011;68284;59.124;37.910;2024-03-23T01:03:40;3.20;;;2.13;;
78895;SDS011;68284;59.124;37.910;2024-03-23T01:06:09;3.20;;;2.42;;
78895;SDS011;68284;59.124;37.910;2024-03-23T01:08:37;3.97;;;2.85;;
78895;SDS011;68284;59.124;37.910;2024-03-23T01:11:09;3.63;;;2.55;;
78895;SDS011;68284;59.124;37.910;2024-03-23T01:13:50;3.80;;;2.92;;
78895;SDS011;68284;59.124;37.910;2024-03-23T01:16:40;4.65;;;2.08;;
78895;SDS011;68284;59.124;37.910;2024-03-23T01:19:12;4.38;;;3.05;;
78895;SDS011;68284;59.124;37.910;2024-03-23T01:21:51;4.40;;;2.65;;
78895;SDS011;68284;59.124;37.910;2024-03-23T01:24:39;3.85;;;2.17;;
78895;SDS011;68284;59.124;37.910;2024-03-23T01:27:10;3.53;;;2.40;;
78895;SDS011;68284;59.124;37.910;2024-03-23T01:29:47;3.50;;;2.60;;
78895;SDS011;68284;59.124;37.910;2024-03-23T01:32:27;3.72;;;2.55;;
78895;SDS011;68284;59.124;37.910;2024-03-23T01:35:05;3.15;;;2.42;;
78895;SDS011;68284;59.124;37.910;2024-03-23T01:40:18;2.90;;;2.42;;
78895;SDS011;68284;59.124;37.910;2024-03-23T01:42:58;6.13;;;2.40;;
78895;SDS011;68284;59.124;37.910;2024-03-23T01:45:33;3.13;;;2.78;;
78895;SDS011;68284;59.124;37.910;2024-03-23T01:49:15;3.88;;;2.30;;
78895;SDS011;68284;59.124;37.910;2024-03-23T01:51:51;3.25;;;2.38;;
78895;SDS011;68284;59.124;37.910;2024-03-23T01:54:24;4.85;;;2.53;;
78895;SDS011;68284;59.124;37.910;2024-03-23T01:56:57;3.17;;;2.65;;
78895;SDS011;68284;59.124;37.910;2024-03-23T01:59:30;3.13;;;2.63;;
78895;SDS011;68284;59.124;37.910;2024-03-23T02:01:58;4.45;;;2.60;;
78895;SDS011;68284;59.124;37.910;2024-03-23T02:04:35;3.55;;;2.88;;
78895;SDS011;68284;59.124;37.910;2024-03-23T02:07:13;5.60;;;3.08;;
78895;SDS011;68284;59.124;37.910;2024-03-23T02:09:56;3.88;;;2.20;;
78895;SDS011;68284;59.124;37.910;2024-03-23T02:12:44;3.20;;;2.72;;
78895;SDS011;68284;59.124;37.910;2024-03-23T02:15:23;4.72;;;3.70;;
78895;SDS011;68284;59.124;37.910;2024-03-23T02:17:58;3.55;;;2.22;;
78895;SDS011;68284;59.124;37.910;2024-03-23T02:21:13;3.85;;;3.08;;
78895;SDS011;68284;59.124;37.910;2024-03-23T02:24:13;4.47;;;3.08;;
78895;SDS011;68284;59.124;37.910;2024-03-23T02:27:01;5.60;;;3.60;;
78895;SDS011;68284;59.124;37.910;2024-03-23T02:29:38;5.20;;;3.00;;
78895;SDS011;68284;59.124;37.910;2024-03-23T02:32:30;5.28;;;2.60;;
78895;SDS011;68284;59.124;37.910;2024-03-23T02:35:04;5.32;;;3.55;;
78895;SDS011;68284;59.124;37.910;2024-03-23T02:41:18;3.80;;;3.13;;
78895;SDS011;68284;59.124;37.910;2024-03-23T02:43:53;4.82;;;3.20;;
78895;SDS011;68284;59.124;37.910;2024-03-23T02:46:40;4.00;;;3.35;;
78895;SDS011;68284;59.124;37.910;2024-03-23T02:52:38;4.57;;;2.92;;
78895;SDS011;68284;59.124;37.910;2024-03-23T02:59:44;7.53;;;3.28;;
78895;SDS011;68284;59.124;37.910;2024-03-23T03:02:15;4.40;;;2.88;;
78895;SDS011;68284;59.124;37.910;2024-03-23T03:05:38;5.60;;;2.50;;
78895;SDS011;68284;59.124;37.910;2024-03-23T03:08:24;4.53;;;3.28;;
78895;SDS011;68284;59.124;37.910;2024-03-23T03:10:59;6.13;;;3.60;;
78895;SDS011;68284;59.124;37.910;2024-03-23T03:13:39;5.10;;;3.25;;
78895;SDS011;68284;59.124;37.910;2024-03-23T03:16:12;5.00;;;3.00;;
78895;SDS011;68284;59.124;37.910;2024-03-23T03:18:46;4.78;;;3.60;;
78895;SDS011;68284;59.124;37.910;2024-03-23T03:21:49;6.40;;;3.72;;
78895;SDS011;68284;59.124;37.910;2024-03-23T03:28:36;2.78;;;2.30;;
78895;SDS011;68284;59.124;37.910;2024-03-23T03:31:39;7.45;;;3.05;;
78895;SDS011;68284;59.124;37.910;2024-03-23T03:34:09;7.68;;;3.25;;
78895;SDS011;68284;59.124;37.910;2024-03-23T03:37:08;4.35;;;2.70;;
78895;SDS011;68284;59.124;37.910;2024-03-23T03:39:36;6.35;;;4.38;;
78895;SDS011;68284;59.124;37.910;2024-03-23T03:42:10;5.20;;;4.15;;
78895;SDS011;68284;59.124;37.910;2024-03-23T03:44:43;4.38;;;3.22;;
78895;SDS011;68284;59.124;37.910;2024-03-23T03:47:11;4.93;;;2.97;;
78895;SDS011;68284;59.124;37.910;2024-03-23T03:49:41;5.40;;;3.08;;
78895;SDS011;68284;59.124;37.910;2024-03-23T03:52:32;6.72;;;3.58;;
78895;SDS011;68284;59.124;37.910;2024-03-23T03:55:13;3.53;;;2.80;;
78895;SDS011;68284;59.124;37.910;2024-03-23T03:58:26;5.60;;;3.75;;
78895;SDS011;68284;59.124;37.910;2024-03-23T04:01:00;8.20;;;4.43;;
78895;SDS011;68284;59.124;37.910;2024-03-23T04:03:44;6.75;;;2.78;;
78895;SDS011;68284;59.124;37.910;2024-03-23T04:06:21;4.72;;;2.65;;
78895;SDS011;68284;59.124;37.910;2024-03-23T04:09:06;5.47;;;3.47;;
78895;SDS011;68284;59.124;37.910;2024-03-23T04:12:17;5.55;;;3.85;;
78895;SDS011;68284;59.124;37.910;2024-03-23T04:15:08;5.82;;;3.22;;
78895;SDS011;68284;59.124;37.910;2024-03-23T04:17:58;5.88;;;3.22;;
78895;SDS011;68284;59.124;37.910;2024-03-23T04:21:04;8.30;;;3.92;;
78895;SDS011;68284;59.124;37.910;2024-03-23T04:23:37;7.55;;;3.90;;
78895;SDS011;68284;59.124;37.910;2024-03-23T04:26:12;5.05;;;2.92;;
78895;SDS011;68284;59.124;37.910;2024-03-23T04:32:05;4.72;;;3.47;;
78895;SDS011;68284;59.124;37.910;2024-03-23T04:38:07;3.15;;;2.83;;
78895;SDS011;68284;59.124;37.910;2024-03-23T04:41:02;5.25;;;3.42;;
78895;SDS011;68284;59.124;37.910;2024-03-23T04:43:45;3.33;;;2.28;;
78895;SDS011;68284;59.124;37.910;2024-03-23T04:46:16;5.07;;;3.63;;
78895;SDS011;68284;59.124;37.910;2024-03-23T04:48:58;4.95;;;3.85;;
78895;SDS011;68284;59.124;37.910;2024-03-23T04:51:45;5.22;;;3.03;;
78895;SDS011;68284;59.124;37.910;2024-03-23T04:54:41;6.90;;;3.47;;
78895;SDS011;68284;59.124;37.910;2024-03-23T04:58:08;5.03;;;2.97;;
78895;SDS011;68284;59.124;37.910;2024-03-23T05:00:54;6.35;;;3.95;;
78895;SDS011;68284;59.124;37.910;2024-03-23T05:03:48;5.65;;;3.30;;
78895;SDS011;68284;59.124;37.910;2024-03-23T05:07:01;4.80;;;3.08;;
78895;SDS011;68284;59.124;37.910;2024-03-23T05:12:39;4.75;;;3.05;;
78895;SDS011;68284;59.124;37.910;2024-03-23T05:15:07;5.72;;;3.83;;
78895;SDS011;68284;59.124;37.910;2024-03-23T05:17:57;4.93;;;4.07;;
78895;SDS011;68284;59.124;37.910;2024-03-23T05:20:29;5.68;;;4.18;;
78895;SDS011;68284;59.124;37.910;2024-03-23T05:23:12;6.78;;;3.47;;
78895;SDS011;68284;59.124;37.910;2024-03-23T05:25:48;5.13;;;2.88;;
78895;SDS011;68284;59.124;37.910;2024-03-23T05:28:44;6.30;;;3.40;;
78895;SDS011;68284;59.124;37.910;2024-03-23T05:31:24;7.15;;;5.03;;
78895;SDS011;68284;59.124;37.910;2024-03-23T05:34:32;6.72;;;4.22;;
78895;SDS011;68284;59.124;37.910;2024-03-23T05:37:00;5.03;;;3.45;;
78895;SDS011;68284;59.124;37.910;2024-03-23T05:39:40;4.40;;;3.42;;
78895;SDS011;68284;59.124;37.910;2024-03-23T05:42:18;6.75;;;3.85;;
78895;SDS011;68284;59.124;37.910;2024-03-23T05:44:49;6.35;;;4.57;;
78895;SDS011;68284;59.124;37.910;2024-03-23T05:47:39;3.67;;;2.78;;
78895;SDS011;68284;59.124;37.910;2024-03-23T05:58:58;4.07;;;2.85;;
78895;SDS011;68284;59.124;37.910;2024-03-23T06:01:37;4.38;;;2.92;;
78895;SDS011;68284;59.124;37.910;2024-03-23T06:04:14;4.40;;;2.45;;
78895;SDS011;68284;59.124;37.910;2024-03-23T06:06:53;6.22;;;3.28;;
78895;SDS011;68284;59.124;37.910;2024-03-23T06:09:42;3.70;;;3.15;;
78895;SDS011;68284;59.124;37.910;2024-03-23T06:16:03;5.45;;;3.10;;
78895;SDS011;68284;59.124;37.910;2024-03-23T06:32:13;3.97;;;3.17;;
78895;SDS011;68284;59.124;37.910;2024-03-23T06:34:42;3.13;;;2.38;;
78895;SDS011;68284;59.124;37.910;2024-03-23T06:37:10;4.28;;;2.35;;
78895;SDS011;68284;59.124;37.910;2024-03-23T06:39:39;4.07;;;2.58;;
78895;SDS011;68284;59.124;37.910;2024-03-23T06:42:08;3.03;;;2.70;;
78895;SDS011;68284;59.124;37.910;2024-03-23T06:44:35;4.18;;;3.10;;
78895;SDS011;68284;59.124;37.910;2024-03-23T06:47:03;4.38;;;3.78;;
78895;SDS011;68284;59.124;37.910;2024-03-23T06:49:33;5.20;;;3.40;;
78895;SDS011;68284;59.124;37.910;2024-03-23T06:52:03;3.05;;;2.70;;
78895;SDS011;68284;59.124;37.910;2024-03-23T06:54:32;2.70;;;1.75;;
78895;SDS011;68284;59.124;37.910;2024-03-23T06:57:00;2.72;;;2.30;;
78895;SDS011;68284;59.124;37.910;2024-03-23T06:59:29;2.15;;;1.60;;
78895;SDS011;68284;59.124;37.910;2024-03-23T07:01:56;3.95;;;2.67;;
78895;SDS011;68284;59.124;37.910;2024-03-23T07:04:22;2.78;;;2.35;;
78895;SDS011;68284;59.124;37.910;2024-03-23T07:06:51;3.67;;;2.55;;
78895;SDS011;68284;59.124;37.910;2024-03-23T07:09:19;3.03;;;2.50;;
78895;SDS011;68284;59.124;37.910;2024-03-23T07:11:55;2.80;;;2.38;;
78895;SDS011;68284;59.124;37.910;2024-03-23T07:14:24;3.22;;;2.42;;
78895;SDS011;68284;59.124;37.910;2024-03-23T07:16:52;3.47;;;2.70;;
78895;SDS011;68284;59.124;37.910;2024-03-23T07:19:19;4.72;;;4.05;;
78895;SDS011;68284;59.124;37.910;2024-03-23T07:21:53;3.05;;;2.50;;
78895;SDS011;68284;59.124;37.910;2024-03-23T07:24:26;3.72;;;3.00;;
78895;SDS011;68284;59.124;37.910;2024-03-23T07:27:06;3.88;;;3.05;;
78895;SDS011;68284;59.124;37.910;2024-03-23T07:29:36;6.40;;;2.63;;
78895;SDS011;68284;59.124;37.910;2024-03-23T07:32:03;4.22;;;2.95;;
78895;SDS011;68284;59.124;37.910;2024-03-23T07:34:34;3.30;;;2.63;;
78895;SDS011;68284;59.124;37.910;2024-03-23T07:37:11;3.65;;;3.15;;
78895;SDS011;68284;59.124;37.910;2024-03-23T07:39:40;2.83;;;2.05;;
78895;SDS011;68284;59.124;37.910;2024-03-23T07:42:07;1.95;;;1.80;;
78895;SDS011;68284;59.124;37.910;2024-03-23T07:44:34;4.07;;;2.80;;
78895;SDS011;68284;59.124;37.910;2024-03-23T07:47:00;3.85;;;2.28;;
78895;SDS011;68284;59.124;37.910;2024-03-23T07:49:29;3.13;;;2.50;;
78895;SDS011;68284;59.124;37.910;2024-03-23T07:52:27;2.83;;;2.53;;
78895;SDS011;68284;59.124;37.910;2024-03-23T07:57:55;2.50;;;2.30;;
78895;SDS011;68284;59.124;37.910;2024-03-23T08:00:24;2.10;;;1.73;;
78895;SDS011;68284;59.124;37.910;2024-03-23T08:02:54;4.20;;;2.65;;
78895;SDS011;68284;59.124;37.910;2024-03-23T08:05:44;3.40;;;2.58;;
78895;SDS011;68284;59.124;37.910;2024-03-23T08:08:14;3.15;;;2.63;;
78895;SDS011;68284;59.124;37.910;2024-03-23T08:10:48;4.00;;;2.78;;
78895;SDS011;68284;59.124;37.910;2024-03-23T08:13:44;2.75;;;2.42;;
78895;SDS011;68284;59.124;37.910;2024-03-23T08:16:11;4.20;;;2.67;;
78895;SDS011;68284;59.124;37.910;2024-03-23T08:18:42;2.65;;;2.25;;
78895;SDS011;68284;59.124;37.910;2024-03-23T08:21:11;3.03;;;2.53;;
78895;SDS011;68284;59.124;37.910;2024-03-23T08:23:46;3.65;;;2.72;;
78895;SDS011;68284;59.124;37.910;2024-03-23T08:26:18;2.65;;;2.30;;
78895;SDS011;68284;59.124;37.910;2024-03-23T08:28:50;2.63;;;2.13;;
78895;SDS011;68284;59.124;37.910;2024-03-23T08:31:25;3.50;;;2.55;;
78895;SDS011;68284;59.124;37.910;2024-03-23T08:33:51;2.75;;;1.90;;
78895;SDS011;68284;59.124;37.910;2024-03-23T08:38:48;2.97;;;2.38;;
78895;SDS011;68284;59.124;37.910;2024-03-23T08:41:18;3.28;;;2.28;;
78895;SDS011;68284;59.124;37.910;2024-03-23T08:43:44;3.15;;;2.78;;
78895;SDS011;68284;59.124;37.910;2024-03-23T08:46:11;2.78;;;2.20;;
78895;SDS011;68284;59.124;37.910;2024-03-23T08:48:49;3.10;;;2.60;;
78895;SDS011;68284;59.124;37.910;2024-03-23T08:51:16;2.33;;;2.00;;
78895;SDS011;68284;59.124;37.910;2024-03-23T08:53:43;2.65;;;2.45;;
78895;SDS011;68284;59.124;37.910;2024-03-23T08:56:10;4.75;;;2.45;;
78895;SDS011;68284;59.124;37.910;2024-03-23T08:58:37;4.18;;;3.90;;
78895;SDS011;68284;59.124;37.910;2024-03-23T09:01:09;2.92;;;2.45;;
78895;SDS011;68284;59.124;37.910;2024-03-23T09:03:37;3.40;;;2.83;;
78895;SDS011;68284;59.124;37.910;2024-03-23T09:08:37;2.88;;;2.13;;
78895;SDS011;68284;59.124;37.910;2024-03-23T09:11:06;3.08;;;2.13;;
78895;SDS011;68284;59.124;37.910;2024-03-23T09:13:38;3.00;;;2.80;;
78895;SDS011;68284;59.124;37.910;2024-03-23T09:16:05;2.00;;;1.80;;
78895;SDS011;68284;59.124;37.910;2024-03-23T09:18:34;2.65;;;2.28;;
78895;SDS011;68284;59.124;37.910;2024-03-23T09:21:04;3.22;;;2.83;;
78895;SDS011;68284;59.124;37.910;2024-03-23T09:23:44;2.13;;;1.92;;
78895;SDS011;68284;59.124;37.910;2024-03-23T09:26:12;3.00;;;2.60;;
78895;SDS011;68284;59.124;37.910;2024-03-23T09:28:38;2.92;;;1.90;;
78895;SDS011;68284;59.124;37.910;2024-03-23T09:31:07;2.03;;;1.85;;
78895;SDS011;68284;59.124;37.910;2024-03-23T09:33:37;1.92;;;1.55;;
78895;SDS011;68284;59.124;37.910;2024-03-23T09:36:07;2.30;;;1.40;;
78895;SDS011;68284;59.124;37.910;2024-03-23T09:38:43;2.85;;;1.67;;
78895;SDS011;68284;59.124;37.910;2024-03-23T09:41:16;2.55;;;2.35;;
78895;SDS011;68284;59.124;37.910;2024-03-23T09:43:46;1.85;;;1.75;;
78895;SDS011;68284;59.124;37.910;2024-03-23T09:46:14;1.60;;;1.50;;
78895;SDS011;68284;59.124;37.910;2024-03-23T09:48:42;1.73;;;1.23;;
78895;SDS011;68284;59.124;37.910;2024-03-23T09:51:12;1.90;;;1.45;;
78895;SDS011;68284;59.124;37.910;2024-03-23T09:53:41;1.65;;;1.55;;
78895;SDS011;68284;59.124;37.910;2024-03-23T09:56:10;1.23;;;1.13;;
78895;SDS011;68284;59.124;37.910;2024-03-23T09:58:37;2.17;;;1.15;;
78895;SDS011;68284;59.124;37.910;2024-03-23T10:01:04;2.35;;;1.50;;
78895;SDS011;68284;59.124;37.910;2024-03-23T10:03:31;1.92;;;1.48;;
78895;SDS011;68284;59.124;37.910;2024-03-23T10:06:01;1.35;;;1.25;;
78895;SDS011;68284;59.124;37.910;2024-03-23T10:08:29;1.40;;;1.30;;
78895;SDS011;68284;59.124;37.910;2024-03-23T10:10:57;1.75;;;1.58;;
78895;SDS011;68284;59.124;37.910;2024-03-23T10:15:54;1.52;;;1.42;;
78895;SDS011;68284;59.124;37.910;2024-03-23T10:18:25;1.77;;;1.08;;
78895;SDS011;68284;59.124;37.910;2024-03-23T10:21:07;1.52;;;1.23;;
78895;SDS011;68284;59.124;37.910;2024-03-23T10:23:38;3.60;;;1.13;;
78895;SDS011;68284;59.124;37.910;2024-03-23T10:26:21;1.95;;;1.75;;
78895;SDS011;68284;59.124;37.910;2024-03-23T10:29:00;1.85;;;1.17;;
78895;SDS011;68284;59.124;37.910;2024-03-23T10:31:28;1.20;;;0.90;;
78895;SDS011;68284;59.124;37.910;2024-03-23T10:33:56;0.93;;;0.82;;
78895;SDS011;68284;59.124;37.910;2024-03-23T10:36:24;2.03;;;1.25;;
78895;SDS011;68284;59.124;37.910;2024-03-23T10:39:09;1.00;;;0.95;;
78895;SDS011;68284;59.124;37.910;2024-03-23T10:41:38;1.30;;;1.20;;
78895;SDS011;68284;59.124;37.910;2024-03-23T10:44:07;1.27;;;1.05;;
78895;SDS011;68284;59.124;37.910;2024-03-23T10:46:34;2.10;;;1.50;;
78895;SDS011;68284;59.124;37.910;2024-03-23T10:49:04;1.08;;;0.98;;
78895;SDS011;68284;59.124;37.910;2024-03-23T10:53:57;0.90;;;0.90;;
78895;SDS011;68284;59.124;37.910;2024-03-23T10:56:26;0.82;;;0.82;;
78895;SDS011;68284;59.124;37.910;2024-03-23T10:58:59;0.70;;;0.63;;
78895;SDS011;68284;59.124;37.910;2024-03-23T11:01:33;1.55;;;1.20;;
78895;SDS011;68284;59.124;37.910;2024-03-23T11:03:59;1.23;;;1.13;;
78895;SDS011;68284;59.124;37.910;2024-03-23T11:06:34;2.08;;;0.77;;
78895;SDS011;68284;59.124;37.910;2024-03-23T11:09:50;1.70;;;0.60;;
78895;SDS011;68284;59.124;37.910;2024-03-23T11:12:43;0.70;;;0.70;;
78895;SDS011;68284;59.124;37.910;2024-03-23T11:15:01;0.88;;;0.88;;
78895;SDS011;68284;59.124;37.910;2024-03-23T11:17:34;2.97;;;1.60;;
78895;SDS011;68284;59.124;37.910;2024-03-23T11:20:07;1.00;;;0.65;;
78895;SDS011;68284;59.124;37.910;2024-03-23T11:22:46;0.93;;;0.93;;
78895;SDS011;68284;59.124;37.910;2024-03-23T11:28:11;1.05;;;1.02;;
78895;SDS011;68284;59.124;37.910;2024-03-23T11:30:38;1.77;;;0.73;;
78895;SDS011;68284;59.124;37.910;2024-03-23T11:33:05;1.73;;;0.88;;
78895;SDS011;68284;59.124;37.910;2024-03-23T11:35:36;0.93;;;0.70;;
78895;SDS011;68284;59.124;37.910;2024-03-23T11:38:16;1.33;;;0.50;;
78895;SDS011;68284;59.124;37.910;2024-03-23T11:40:48;1.95;;;1.17;;
78895;SDS011;68284;59.124;37.910;2024-03-23T11:43:22;0.90;;;0.50;;
78895;SDS011;68284;59.124;37.910;2024-03-23T11:45:51;1.75;;;0.82;;
78895;SDS011;68284;59.124;37.910;2024-03-23T11:48:19;1.02;;;0.77;;
78895;SDS011;68284;59.124;37.910;2024-03-23T11:50:47;0.68;;;0.52;;
78895;SDS011;68284;59.124;37.910;2024-03-23T11:53:22;0.68;;;0.60;;
78895;SDS011;68284;59.124;37.910;2024-03-23T11:58:24;1.33;;;0.57;;
78895;SDS011;68284;59.124;37.910;2024-03-23T12:00:52;0.77;;;0.43;;
78895;SDS011;68284;59.124;37.910;2024-03-23T12:03:20;1.95;;;0.93;;
78895;SDS011;68284;59.124;37.910;2024-03-23T12:05:49;1.00;;;0.52;;
78895;SDS011;68284;59.124;37.910;2024-03-23T12:08:23;1.02;;;0.70;;
78895;SDS011;68284;59.124;37.910;2024-03-23T12:10:53;0.50;;;0.50;;
78895;SDS011;68284;59.124;37.910;2024-03-23T12:13:37;0.65;;;0.60;;
78895;SDS011;68284;59.124;37.910;2024-03-23T12:16:14;0.77;;;0.50;;
78895;SDS011;68284;59.124;37.910;2024-03-23T12:18:43;0.50;;;0.50;;
78895;SDS011;68284;59.124;37.910;2024-03-23T12:21:12;1.77;;;0.52;;
78895;SDS011;68284;59.124;37.910;2024-03-23T12:23:41;0.65;;;0.50;;
78895;SDS011;68284;59.124;37.910;2024-03-23T12:26:11;1.05;;;0.80;;
78895;SDS011;68284;59.124;37.910;2024-03-23T12:28:45;0.93;;;0.70;;
78895;SDS011;68284;59.124;37.910;2024-03-23T12:31:13;0.80;;;0.80;;
78895;SDS011;68284;59.124;37.910;2024-03-23T12:33:41;0.95;;;0.70;;
78895;SDS011;68284;59.124;37.910;2024-03-23T12:36:08;1.25;;;0.60;;
78895;SDS011;68284;59.124;37.910;2024-03-23T12:38:37;0.57;;;0.57;;
78895;SDS011;68284;59.124;37.910;2024-03-23T12:41:06;0.60;;;0.38;;
78895;SDS011;68284;59.124;37.910;2024-03-23T12:43:34;1.63;;;0.38;;
78895;SDS011;68284;59.124;37.910;2024-03-23T12:46:03;0.52;;;0.52;;
78895;SDS011;68284;59.124;37.910;2024-03-23T12:48:44;1.13;;;0.75;;
78895;SDS011;68284;59.124;37.910;2024-03-23T12:51:11;1.13;;;1.13;;
78895;SDS011;68284;59.124;37.910;2024-03-23T12:53:40;1.33;;;0.63;;
78895;SDS011;68284;59.124;37.910;2024-03-23T12:56:12;1.15;;;1.00;;
78895;SDS011;68284;59.124;37.910;2024-03-23T12:58:39;1.17;;;1.02;;
78895;SDS011;68284;59.124;37.910;2024-03-23T13:01:12;1.27;;;0.73;;
78895;SDS011;68284;59.124;37.910;2024-03-23T13:03:39;1.25;;;0.88;;
78895;SDS011;68284;59.124;37.910;2024-03-23T13:06:06;1.98;;;0.90;;
78895;SDS011;68284;59.124;37.910;2024-03-23T13:08:38;0.90;;;0.70;;
78895;SDS011;68284;59.124;37.910;2024-03-23T13:11:08;0.60;;;0.60;;
78895;SDS011;68284;59.124;37.910;2024-03-23T13:13:37;1.38;;;0.93;;
78895;SDS011;68284;59.124;37.910;2024-03-23T13:16:05;0.80;;;0.80;;
78895;SDS011;68284;59.124;37.910;2024-03-23T13:18:36;1.60;;;0.93;;
78895;SDS011;68284;59.124;37.910;2024-03-23T13:21:03;1.52;;;1.42;;
78895;SDS011;68284;59.124;37.910;2024-03-23T13:23:30;0.70;;;0.70;;
78895;SDS011;68284;59.124;37.910;2024-03-23T13:25:58;2.70;;;1.00;;
78895;SDS011;68284;59.124;37.910;2024-03-23T13:30:52;0.90;;;0.68;;
78895;SDS011;68284;59.124;37.910;2024-03-23T13:33:22;0.68;;;0.68;;
78895;SDS011;68284;59.124;37.910;2024-03-23T13:35:52;1.92;;;0.63;;
78895;SDS011;68284;59.124;37.910;2024-03-23T13:38:20;0.85;;;0.85;;
78895;SDS011;68284;59.124;37.910;2024-03-23T13:43:16;1.30;;;0.73;;
78895;SDS011;68284;59.124;37.910;2024-03-23T13:45:44;0.52;;;0.52;;
78895;SDS011;68284;59.124;37.910;2024-03-23T13:48:11;0.90;;;0.60;;
78895;SDS011;68284;59.124;37.910;2024-03-23T13:53:04;1.88;;;0.57;;
78895;SDS011;68284;59.124;37.910;2024-03-23T13:55:32;0.60;;;0.60;;
78895;SDS011;68284;59.124;37.910;2024-03-23T14:00:25;0.85;;;0.50;;
78895;SDS011;68284;59.124;37.910;2024-03-23T14:02:51;0.98;;;0.50;;
78895;SDS011;68284;59.124;37.910;2024-03-23T14:05:20;1.13;;;0.50;;
78895;SDS011;68284;59.124;37.910;2024-03-23T14:07:47;0.52;;;0.52;;
78895;SDS011;68284;59.124;37.910;2024-03-23T14:10:15;1.27;;;0.30;;
78895;SDS011;68284;59.124;37.910;2024-03-23T14:12:41;0.85;;;0.10;;
78895;SDS011;68284;59.124;37.910;2024-03-23T14:15:10;0.55;;;0.40;;
78895;SDS011;68284;59.124;37.910;2024-03-23T14:17:39;0.50;;;0.50;;
78895;SDS011;68284;59.124;37.910;2024-03-23T14:20:06;1.02;;;0.60;;
78895;SDS011;68284;59.124;37.910;2024-03-23T14:22:41;1.13;;;0.50;;
78895;SDS011;68284;59.124;37.910;2024-03-23T14:25:07;1.00;;;0.80;;
78895;SDS011;68284;59.124;37.910;2024-03-23T14:27:34;2.38;;;0.60;;
78895;SDS011;68284;59.124;37.910;2024-03-23T14:30:03;0.52;;;0.40;;
78895;SDS011;68284;59.124;37.910;2024-03-23T14:32:33;0.50;;;0.50;;
78895;SDS011;68284;59.124;37.910;2024-03-23T14:35:00;0.65;;;0.30;;
78895;SDS011;68284;59.124;37.910;2024-03-23T14:37:28;0.50;;;0.50;;
78895;SDS011;68284;59.124;37.910;2024-03-23T14:39:56;0.95;;;0.45;;
78895;SDS011;68284;59.124;37.910;2024-03-23T14:42:24;1.55;;;0.60;;
78895;SDS011;68284;59.124;37.910;2024-03-23T14:44:53;0.30;;;0.30;;
78895;SDS011;68284;59.124;37.910;2024-03-23T14:47:20;0.65;;;0.50;;
78895;SDS011;68284;59.124;37.910;2024-03-23T14:49:49;0.55;;;0.50;;
78895;SDS011;68284;59.124;37.910;2024-03-23T14:52:17;0.57;;;0.30;;
78895;SDS011;68284;59.124;37.910;2024-03-23T14:54:45;1.30;;;0.50;;
78895;SDS011;68284;59.124;37.910;2024-03-23T14:57:12;0.20;;;0.20;;
78895;SDS011;68284;59.124;37.910;2024-03-23T14:59:39;0.55;;;0.55;;
78895;SDS011;68284;59.124;37.910;2024-03-23T15:02:06;0.28;;;0.28;;
78895;SDS011;68284;59.124;37.910;2024-03-23T15:04:34;0.82;;;0.40;;
78895;SDS011;68284;59.124;37.910;2024-03-23T15:07:02;3.22;;;0.50;;
78895;SDS011;68284;59.124;37.910;2024-03-23T15:09:30;0.65;;;0.50;;
78895;SDS011;68284;59.124;37.910;2024-03-23T15:11:58;1.45;;;0.73;;
78895;SDS011;68284;59.124;37.910;2024-03-23T15:14:26;0.35;;;0.35;;
78895;SDS011;68284;59.124;37.910;2024-03-23T15:16:53;0.57;;;0.52;;
78895;SDS011;68284;59.124;37.910;2024-03-23T15:19:21;0.75;;;0.55;;
78895;SDS011;68284;59.124;37.910;2024-03-23T15:21:47;0.20;;;0.20;;
78895;SDS011;68284;59.124;37.910;2024-03-23T15:24:14;1.98;;;0.63;;
78895;SDS011;68284;59.124;37.910;2024-03-23T15:26:40;0.52;;;0.50;;
78895;SDS011;68284;59.124;37.910;2024-03-23T15:29:08;0.52;;;0.52;;
78895;SDS011;68284;59.124;37.910;2024-03-23T15:31:41;0.68;;;0.50;;
78895;SDS011;68284;59.124;37.910;2024-03-23T15:36:39;0.95;;;0.30;;
78895;SDS011;68284;59.124;37.910;2024-03-23T15:39:05;1.35;;;0.75;;
78895;SDS011;68284;59.124;37.910;2024-03-23T15:41:35;1.13;;;0.80;;
78895;SDS011;68284;59.124;37.910;2024-03-23T15:44:03;1.52;;;1.42;;
78895;SDS011;68284;59.124;37.910;2024-03-23T15:46:34;0.80;;;0.60;;
78895;SDS011;68284;59.124;37.910;2024-03-23T15:51:39;1.40;;;0.75;;
78895;SDS011;68284;59.124;37.910;2024-03-23T15:54:08;2.05;;;0.68;;
78895;SDS011;68284;59.124;37.910;2024-03-23T15:59:02;1.70;;;0.55;;
78895;SDS011;68284;59.124;37.910;2024-03-23T16:01:33;1.13;;;1.00;;
78895;SDS011;68284;59.124;37.910;2024-03-23T16:04:01;0.65;;;0.65;;
78895;SDS011;68284;59.124;37.910;2024-03-23T16:06:28;1.23;;;1.17;;
78895;SDS011;68284;59.124;37.910;2024-03-23T16:08:55;2.03;;;0.88;;
78895;SDS011;68284;59.124;37.910;2024-03-23T16:11:22;1.98;;;0.80;;
78895;SDS011;68284;59.124;37.910;2024-03-23T16:13:50;0.80;;;0.50;;
78895;SDS011;68284;59.124;37.910;2024-03-23T16:16:17;0.95;;;0.88;;
78895;SDS011;68284;59.124;37.910;2024-03-23T16:18:49;2.00;;;0.77;;
78895;SDS011;68284;59.124;37.910;2024-03-23T16:21:18;1.55;;;0.85;;
78895;SDS011;68284;59.124;37.910;2024-03-23T16:23:45;1.27;;;0.88;;
78895;SDS011;68284;59.124;37.910;2024-03-23T16:26:12;0.85;;;0.60;;
78895;SDS011;68284;59.124;37.910;2024-03-23T16:28:42;1.33;;;0.50;;
78895;SDS011;68284;59.124;37.910;2024-03-23T16:31:11;2.25;;;0.82;;
78895;SDS011;68284;59.124;37.910;2024-03-23T16:33:38;1.33;;;0.70;;
78895;SDS011;68284;59.124;37.910;2024-03-23T16:38:36;0.85;;;0.85;;
78895;SDS011;68284;59.124;37.910;2024-03-23T16:41:05;0.50;;;0.50;;
78895;SDS011;68284;59.124;37.910;2024-03-23T16:43:34;1.30;;;0.65;;
78895;SDS011;68284;59.124;37.910;2024-03-23T16:46:04;1.10;;;0.90;;
78895;SDS011;68284;59.124;37.910;2024-03-23T16:48:34;1.25;;;0.88;;
78895;SDS011;68284;59.124;37.910;2024-03-23T16:51:01;0.90;;;0.70;;
78895;SDS011;68284;59.124;37.910;2024-03-23T16:53:33;1.33;;;1.23;;
78895;SDS011;68284;59.124;37.910;2024-03-23T16:56:05;0.63;;;0.63;;
78895;SDS011;68284;59.124;37.910;2024-03-23T16:58:35;1.20;;;0.75;;
78895;SDS011;68284;59.124;37.910;2024-03-23T17:01:05;3.30;;;0.85;;
78895;SDS011;68284;59.124;37.910;2024-03-23T17:03:54;1.58;;;1.08;;
78895;SDS011;68284;59.124;37.910;2024-03-23T17:06:23;1.48;;;1.10;;
78895;SDS011;68284;59.124;37.910;2024-03-23T17:09:31;1.23;;;1.13;;
78895;SDS011;68284;59.124;37.910;2024-03-23T17:12:57;0.55;;;0.55;;
78895;SDS011;68284;59.124;37.910;2024-03-23T17:15:24;2.30;;;1.33;;
78895;SDS011;68284;59.124;37.910;2024-03-23T17:17:52;1.50;;;1.08;;
78895;SDS011;68284;59.124;37.910;2024-03-23T17:20:21;0.50;;;0.50;;
78895;SDS011;68284;59.124;37.910;2024-03-23T17:22:55;0.98;;;0.98;;
78895;SDS011;68284;59.124;37.910;2024-03-23T17:25:23;0.95;;;0.75;;
78895;SDS011;68284;59.124;37.910;2024-03-23T17:27:50;0.77;;;0.43;;
78895;SDS011;68284;59.124;37.910;2024-03-23T17:30:17;0.88;;;0.88;;
78895;SDS011;68284;59.124;37.910;2024-03-23T17:32:47;1.48;;;0.60;;
78895;SDS011;68284;59.124;37.910;2024-03-23T17:35:14;1.75;;;1.25;;
78895;SDS011;68284;59.124;37.910;2024-03-23T17:37:43;1.15;;;0.90;;